Time;durP1;ratioP1;P1;durP2;ratioP2;P2;SDS_P1;SDS_P2;PMS_P1;PMS_P2;Temp;Humidity;BMP_temperature;BMP_pressure;BME280_temperature;BME280_humidity;BME280_pressure;Samples;Min_cycle;Max_cycle;Signal;HPM_P1;HPM_P2
2021/08/10 00:02:05;;;;;;;4.87;3.30;;;14.80;97.30;;;;;;5016179;28;20416;-75
2021/08/10 00:04:30;;;;;;;3.40;2.93;;;14.80;97.30;;;;;;5015727;28;20555;-74
2021/08/10 00:06:56;;;;;;;4.50;3.20;;;14.80;97.30;;;;;;5015779;28;20234;-75
2021/08/10 00:09:21;;;;;;;7.47;3.00;;;14.80;97.30;;;;;;5016107;28;20231;-75
2021/08/10 00:11:47;;;;;;;6.47;3.53;;;14.80;97.30;;;;;;5015834;28;20184;-75
2021/08/10 00:14:12;;;;;;;3.47;2.87;;;14.80;97.30;;;;;;5015772;28;20646;-75
2021/08/10 00:16:39;;;;;;;3.90;2.90;;;14.80;97.30;;;;;;5033488;28;20184;-75
2021/08/10 00:19:05;;;;;;;5.43;2.97;;;14.80;97.30;;;;;;5015607;28;20204;-75
2021/08/10 00:21:30;;;;;;;2.80;2.17;;;14.80;97.30;;;;;;5033296;28;20763;-75
2021/08/10 00:23:56;;;;;;;3.00;2.63;;;14.70;97.30;;;;;;5015702;28;20466;-75
2021/08/10 00:26:22;;;;;;;4.63;2.77;;;14.70;97.30;;;;;;5015657;28;20176;-74
2021/08/10 00:28:47;;;;;;;4.57;2.90;;;14.70;97.30;;;;;;5015164;28;20235;-75
2021/08/10 00:31:13;;;;;;;7.13;3.00;;;14.70;97.30;;;;;;5015524;28;20222;-75
2021/08/10 00:33:38;;;;;;;4.60;2.83;;;14.60;97.30;;;;;;5033105;28;20183;-75
2021/08/10 00:36:04;;;;;;;3.57;2.67;;;14.60;97.30;;;;;;5033419;28;20207;-75
2021/08/10 00:38:30;;;;;;;5.13;2.70;;;14.60;97.30;;;;;;5032859;28;20303;-75
2021/08/10 00:40:56;;;;;;;4.80;3.07;;;14.50;97.30;;;;;;5032785;28;20176;-75
2021/08/10 00:43:35;;;;;;;6.70;3.37;;;14.50;97.30;;;;;;5014968;28;20666;-75
2021/08/10 00:46:03;;;;;;;7.90;3.50;;;14.50;97.30;;;;;;5015194;28;20419;-75
2021/08/10 00:48:28;;;;;;;3.03;2.63;;;14.50;97.30;;;;;;5015160;28;20446;-75
2021/08/10 00:50:54;;;;;;;6.33;3.23;;;14.50;97.30;;;;;;5032874;28;20411;-74
2021/08/10 00:53:20;;;;;;;4.50;2.80;;;14.40;97.30;;;;;;5015331;28;20229;-74
2021/08/10 00:55:46;;;;;;;5.37;3.30;;;14.40;97.30;;;;;;5032619;28;20670;-74
2021/08/10 00:58:13;;;;;;;3.17;2.87;;;14.40;97.30;;;;;;5014641;28;20232;-75
2021/08/10 01:00:39;;;;;;;6.40;2.70;;;14.40;97.30;;;;;;5014672;28;20407;-74
2021/08/10 01:03:04;;;;;;;4.97;3.17;;;14.30;97.30;;;;;;5014903;28;21001;-75
2021/08/10 01:05:30;;;;;;;10.10;3.43;;;14.30;97.30;;;;;;5014659;28;20200;-74
2021/08/10 01:08:26;;;;;;;6.70;3.07;;;14.30;97.30;;;;;;5032517;28;20220;-75
2021/08/10 01:11:19;;;;;;;4.60;2.90;;;14.30;97.30;;;;;;5014692;28;20764;-76
2021/08/10 01:13:53;;;;;;;4.10;3.13;;;14.20;97.30;;;;;;5014304;28;20488;-74
2021/08/10 01:16:43;;;;;;;7.43;3.23;;;14.20;97.30;;;;;;5014655;28;20411;-75
2021/08/10 01:19:24;;;;;;;6.70;3.00;;;14.20;97.30;;;;;;5032120;28;20574;-75
2021/08/10 01:21:53;;;;;;;5.27;2.90;;;14.10;97.30;;;;;;5032268;28;20399;-75
2021/08/10 01:24:24;;;;;;;5.73;2.80;;;14.10;97.30;;;;;;5014486;28;20455;-74
2021/08/10 01:27:15;;;;;;;3.80;3.17;;;14.10;97.30;;;;;;5014660;28;20905;-75
2021/08/10 01:29:55;;;;;;;7.20;2.90;;;14.10;97.30;;;;;;5013868;28;20442;-75
2021/08/10 01:32:22;;;;;;;4.80;2.53;;;14.10;97.30;;;;;;5014457;28;20885;-75
2021/08/10 01:34:49;;;;;;;7.80;3.13;;;14.10;97.30;;;;;;5014043;28;20423;-74
2021/08/10 01:37:19;;;;;;;3.30;2.93;;;14.10;97.30;;;;;;5014399;28;20430;-75
2021/08/10 01:39:49;;;;;;;4.90;3.80;;;14.10;97.30;;;;;;5014176;28;20441;-75
2021/08/10 01:42:16;;;;;;;4.43;2.77;;;14.10;97.30;;;;;;5014158;28;20425;-74
2021/08/10 01:44:43;;;;;;;7.67;3.00;;;14.20;97.30;;;;;;5014201;28;20466;-74
2021/08/10 01:47:11;;;;;;;4.43;3.17;;;14.20;97.30;;;;;;5014177;28;20447;-75
2021/08/10 01:49:38;;;;;;;7.90;3.03;;;14.20;97.30;;;;;;5014244;28;20444;-75
2021/08/10 01:52:07;;;;;;;6.73;3.30;;;14.20;97.30;;;;;;5023729;28;20407;-75
2021/08/10 01:54:36;;;;;;;5.37;3.10;;;14.20;97.30;;;;;;5031979;28;20439;-74
2021/08/10 01:57:02;;;;;;;4.10;2.77;;;14.20;97.30;;;;;;5014243;28;20523;-75
2021/08/10 01:59:30;;;;;;;6.27;3.07;;;14.20;97.30;;;;;;5031572;28;20482;-75
2021/08/10 02:01:55;;;;;;;8.50;2.93;;;14.20;97.30;;;;;;5013944;28;20418;-75
2021/08/10 02:04:22;;;;;;;7.27;2.60;;;14.20;97.30;;;;;;5031488;28;20458;-75
2021/08/10 02:06:49;;;;;;;16.33;3.27;;;14.20;97.30;;;;;;5014165;28;20423;-75
2021/08/10 02:09:18;;;;;;;9.33;3.27;;;14.20;97.30;;;;;;5031342;28;20427;-75
2021/08/10 02:11:44;;;;;;;7.30;2.57;;;14.20;97.30;;;;;;5014033;28;20437;-74
2021/08/10 02:14:13;;;;;;;4.73;3.20;;;14.10;97.30;;;;;;5019347;28;20434;-75
2021/08/10 02:16:40;;;;;;;4.83;3.20;;;14.10;97.30;;;;;;5038211;28;20438;-75
2021/08/10 02:19:07;;;;;;;8.43;3.07;;;14.10;97.30;;;;;;5027231;28;20453;-75
2021/08/10 02:21:42;;;;;;;5.20;2.90;;;14.10;97.30;;;;;;5037966;28;20407;-75
2021/08/10 02:24:14;;;;;;;7.63;3.33;;;14.10;97.30;;;;;;5020513;28;20920;-75
2021/08/10 02:26:55;;;;;;;5.00;2.87;;;14.10;97.30;;;;;;5020447;28;20413;-75
2021/08/10 02:29:23;;;;;;;6.30;3.53;;;14.10;97.30;;;;;;5020210;28;20435;-75
2021/08/10 02:31:50;;;;;;;4.50;3.07;;;14.10;97.30;;;;;;5019999;28;20411;-75
2021/08/10 02:34:18;;;;;;;11.83;3.37;;;14.10;97.30;;;;;;5038045;28;20796;-75
2021/08/10 02:36:45;;;;;;;5.80;3.20;;;14.10;97.30;;;;;;5038250;28;20465;-75
2021/08/10 02:39:12;;;;;;;4.33;3.03;;;14.10;97.30;;;;;;5019999;28;20947;-74
2021/08/10 02:41:40;;;;;;;2.93;2.40;;;14.00;97.30;;;;;;5020312;28;20242;-75
2021/08/10 02:44:09;;;;;;;4.80;2.90;;;14.00;97.30;;;;;;5020293;28;20576;-74
2021/08/10 02:46:35;;;;;;;4.43;3.10;;;14.00;97.30;;;;;;5020662;28;20430;-75
2021/08/10 02:49:02;;;;;;;4.80;2.67;;;13.90;97.30;;;;;;5020159;28;21087;-75
2021/08/10 02:51:27;;;;;;;5.87;3.40;;;13.90;97.30;;;;;;5020416;28;20419;-75
2021/08/10 02:53:53;;;;;;;8.50;3.17;;;13.90;97.30;;;;;;5020125;28;20430;-75
2021/08/10 02:56:22;;;;;;;4.17;2.87;;;13.90;97.30;;;;;;5019867;28;20662;-75
2021/08/10 02:58:58;;;;;;;5.83;3.27;;;13.90;97.30;;;;;;5019517;28;20851;-75
2021/08/10 03:01:30;;;;;;;4.60;3.37;;;13.90;97.30;;;;;;5036389;28;20529;-75
2021/08/10 03:03:57;;;;;;;5.40;2.97;;;13.80;97.30;;;;;;5037853;28;20443;-74
2021/08/10 03:06:23;;;;;;;5.20;3.53;;;13.80;97.30;;;;;;5036463;28;20410;-75
2021/08/10 03:08:57;;;;;;;8.27;2.80;;;13.80;97.30;;;;;;5038103;28;20960;-77
2021/08/10 03:11:24;;;;;;;5.53;3.00;;;13.70;97.30;;;;;;5020561;28;20449;-74
2021/08/10 03:13:52;;;;;;;4.20;3.20;;;13.70;97.30;;;;;;5036561;28;20418;-74
2021/08/10 03:16:19;;;;;;;6.30;3.20;;;13.70;97.30;;;;;;5036627;28;20481;-74
2021/08/10 03:18:49;;;;;;;5.47;3.13;;;13.70;97.30;;;;;;5037360;28;20431;-74
2021/08/10 03:21:15;;;;;;;6.23;3.47;;;13.80;97.30;;;;;;5037669;28;20939;-75
2021/08/10 03:23:43;;;;;;;5.20;3.53;;;13.80;97.30;;;;;;5036075;28;20459;-75
2021/08/10 03:26:09;;;;;;;8.10;3.27;;;13.70;97.30;;;;;;5033336;28;20422;-74
2021/08/10 03:28:41;;;;;;;5.40;3.03;;;13.70;97.30;;;;;;5033313;28;20435;-74
2021/08/10 03:31:08;;;;;;;5.50;3.40;;;13.70;97.30;;;;;;5016611;28;20454;-74
2021/08/10 03:33:35;;;;;;;4.27;2.70;;;13.70;97.30;;;;;;5033132;28;20426;-75
2021/08/10 03:36:02;;;;;;;9.90;3.27;;;13.70;97.30;;;;;;5033073;28;20510;-74
2021/08/10 03:38:29;;;;;;;8.00;3.13;;;13.60;97.30;;;;;;5032909;28;20525;-75
2021/08/10 03:40:56;;;;;;;4.47;2.80;;;13.60;97.30;;;;;;5034581;28;20444;-75
2021/08/10 03:43:22;;;;;;;5.07;3.07;;;13.60;97.30;;;;;;5032986;28;20480;-75
2021/08/10 03:45:52;;;;;;;5.50;2.93;;;13.60;97.30;;;;;;5034129;28;20972;-75
2021/08/10 03:48:19;;;;;;;4.73;2.87;;;13.70;97.30;;;;;;5032725;28;20432;-75
2021/08/10 03:50:46;;;;;;;4.70;3.00;;;13.70;97.30;;;;;;5032871;28;20440;-75
2021/08/10 03:53:13;;;;;;;7.20;3.67;;;13.70;97.30;;;;;;5032410;28;20415;-75
2021/08/10 03:55:39;;;;;;;6.23;3.30;;;13.70;97.30;;;;;;5032440;28;20425;-75
2021/08/10 03:58:06;;;;;;;4.77;3.27;;;13.70;97.30;;;;;;5034561;28;20443;-75
2021/08/10 04:00:39;;;;;;;9.07;3.43;;;13.70;97.30;;;;;;5035807;28;20422;-75
2021/08/10 04:03:08;;;;;;;5.50;3.40;;;13.70;97.30;;;;;;5053981;28;20406;-75
2021/08/10 04:05:39;;;;;;;4.10;3.00;;;13.70;97.30;;;;;;5053469;28;20450;-74
2021/08/10 04:08:08;;;;;;;7.00;3.90;;;13.80;97.30;;;;;;5053658;28;20431;-75
2021/08/10 04:10:33;;;;;;;5.30;3.20;;;13.80;97.30;;;;;;5035519;28;20410;-75
2021/08/10 04:12:59;;;;;;;5.87;3.47;;;13.80;97.30;;;;;;5053763;28;20886;-75
2021/08/10 04:15:25;;;;;;;7.63;3.53;;;13.90;97.30;;;;;;5035463;28;20176;-75
2021/08/10 04:17:51;;;;;;;10.10;4.00;;;13.90;97.30;;;;;;5035856;28;20195;-77
2021/08/10 04:20:18;;;;;;;5.80;3.50;;;14.00;97.30;;;;;;5035850;28;20413;-75
2021/08/10 04:22:44;;;;;;;5.80;3.97;;;14.00;97.30;;;;;;5035776;28;20418;-75
2021/08/10 04:25:10;;;;;;;7.67;3.67;;;14.00;97.30;;;;;;5035719;28;20807;-76
2021/08/10 04:27:35;;;;;;;7.70;3.87;;;14.10;97.30;;;;;;5035262;28;20172;-75
2021/08/10 04:30:02;;;;;;;5.80;3.60;;;14.10;97.30;;;;;;5035464;28;20171;-75
2021/08/10 04:32:27;;;;;;;10.93;3.87;;;14.10;97.30;;;;;;5035167;28;20263;-76
2021/08/10 04:34:53;;;;;;;16.30;3.93;;;14.10;97.30;;;;;;5035330;28;20500;-76
2021/08/10 04:37:18;;;;;;;6.47;3.97;;;14.20;97.30;;;;;;5034690;28;20618;-75
2021/08/10 04:39:44;;;;;;;5.87;3.67;;;14.20;97.30;;;;;;5035035;28;20242;-76
2021/08/10 04:42:10;;;;;;;6.03;3.50;;;14.20;97.30;;;;;;5035540;28;20591;-75
2021/08/10 04:44:35;;;;;;;4.63;3.40;;;14.30;97.30;;;;;;5034848;28;20609;-76
2021/08/10 04:47:01;;;;;;;6.90;4.23;;;14.40;97.30;;;;;;5052920;28;20263;-75
2021/08/10 04:49:26;;;;;;;6.50;4.17;;;14.40;97.30;;;;;;5034670;28;20740;-75
2021/08/10 04:51:52;;;;;;;7.57;3.90;;;14.50;97.30;;;;;;5034757;28;20528;-75
2021/08/10 04:54:18;;;;;;;5.80;3.63;;;14.50;97.30;;;;;;5052915;28;20199;-76
2021/08/10 04:56:43;;;;;;;6.90;3.70;;;14.50;97.30;;;;;;5052780;28;20214;-76
2021/08/10 04:59:09;;;;;;;7.47;3.60;;;14.60;97.30;;;;;;5034800;28;20721;-77
2021/08/10 05:01:34;;;;;;;11.27;3.43;;;14.60;97.30;;;;;;5034714;28;20556;-77
2021/08/10 05:04:00;;;;;;;7.90;3.20;;;14.60;97.30;;;;;;5035168;28;20646;-77
2021/08/10 05:06:25;;;;;;;8.07;3.50;;;14.60;97.30;;;;;;5052574;28;20206;-77
2021/08/10 05:08:51;;;;;;;4.70;3.43;;;14.60;97.30;;;;;;5034731;28;20721;-77
2021/08/10 05:11:17;;;;;;;15.10;3.93;;;14.60;97.30;;;;;;5034672;28;20570;-77
2021/08/10 05:13:42;;;;;;;11.93;3.70;;;14.60;97.30;;;;;;5052848;28;20262;-77
2021/08/10 05:16:08;;;;;;;10.30;4.50;;;14.60;97.30;;;;;;5034342;28;20176;-77
2021/08/10 05:18:34;;;;;;;5.90;3.60;;;14.70;97.30;;;;;;5052380;28;20191;-78
2021/08/10 05:21:00;;;;;;;5.67;3.30;;;14.80;97.30;;;;;;5034412;28;20180;-77
2021/08/10 05:23:26;;;;;;;8.57;3.83;;;14.80;97.30;;;;;;5034950;28;20784;-78
2021/08/10 05:25:52;;;;;;;12.63;3.30;;;14.80;97.30;;;;;;5034415;28;20184;-78
2021/08/10 05:28:18;;;;;;;6.23;3.47;;;14.90;97.30;;;;;;5034486;28;20465;-78
2021/08/10 05:30:43;;;;;;;8.03;4.37;;;14.90;97.30;;;;;;5033541;28;20210;-78
2021/08/10 05:33:09;;;;;;;6.90;3.70;;;15.00;97.30;;;;;;5020082;28;20176;-78
2021/08/10 05:35:34;;;;;;;9.33;3.43;;;15.00;97.30;;;;;;5040246;28;20590;-78
2021/08/10 05:38:00;;;;;;;6.00;3.80;;;15.10;97.30;;;;;;5022382;28;20192;-78
2021/08/10 05:40:26;;;;;;;7.70;3.40;;;15.10;97.30;;;;;;5039418;28;20223;-78
2021/08/10 05:42:51;;;;;;;6.67;3.70;;;15.20;97.30;;;;;;5042228;28;20187;-78
2021/08/10 05:45:17;;;;;;;6.80;3.17;;;15.20;97.30;;;;;;5022564;28;20208;-78
2021/08/10 05:47:42;;;;;;;7.07;3.47;;;15.30;97.30;;;;;;5039929;28;20654;-78
2021/08/10 05:50:08;;;;;;;5.30;3.50;;;15.40;97.30;;;;;;5041834;28;20171;-78
2021/08/10 05:52:34;;;;;;;10.13;3.70;;;15.50;97.30;;;;;;5024972;28;20172;-78
2021/08/10 05:55:00;;;;;;;6.23;3.40;;;15.50;97.30;;;;;;5025347;28;20754;-78
2021/08/10 05:57:25;;;;;;;8.60;4.00;;;15.60;97.30;;;;;;5021411;28;20184;-78
2021/08/10 05:59:51;;;;;;;7.00;3.60;;;15.60;97.30;;;;;;5013838;28;20228;-78
2021/08/10 06:02:16;;;;;;;8.20;3.60;;;15.60;97.30;;;;;;5013878;28;20534;-77
2021/08/10 06:04:42;;;;;;;8.27;3.73;;;15.70;97.30;;;;;;5003716;28;20232;-78
2021/08/10 06:07:07;;;;;;;8.83;3.93;;;15.70;97.30;;;;;;5008826;28;20177;-77
2021/08/10 06:09:34;;;;;;;8.20;3.70;;;15.70;97.30;;;;;;5002057;28;20196;-76
2021/08/10 06:11:59;;;;;;;6.23;3.80;;;15.70;97.30;;;;;;5013427;28;20280;-76
2021/08/10 06:14:25;;;;;;;6.10;3.77;;;15.70;97.30;;;;;;5031819;28;20462;-78
2021/08/10 06:16:51;;;;;;;6.23;4.30;;;15.70;97.30;;;;;;5013636;28;20181;-77
2021/08/10 06:19:17;;;;;;;8.63;4.13;;;15.80;97.30;;;;;;5031660;28;20200;-77
2021/08/10 06:21:42;;;;;;;6.33;4.00;;;15.80;97.30;;;;;;5009936;28;20271;-76
2021/08/10 06:24:08;;;;;;;6.73;3.80;;;15.90;97.30;;;;;;4994172;28;20803;-77
2021/08/10 06:26:33;;;;;;;11.43;3.83;;;15.90;97.30;;;;;;4994993;28;20184;-78
2021/08/10 06:28:59;;;;;;;8.50;3.90;;;15.90;97.30;;;;;;5006723;28;20250;-77
2021/08/10 06:31:25;;;;;;;5.87;3.93;;;16.00;97.30;;;;;;5022105;28;20254;-78
2021/08/10 06:33:51;;;;;;;4.30;3.60;;;16.00;97.30;;;;;;5002642;28;20177;-77
2021/08/10 06:36:16;;;;;;;8.90;3.73;;;16.00;97.30;;;;;;5005608;28;20416;-78
2021/08/10 06:38:42;;;;;;;4.50;3.10;;;16.10;97.30;;;;;;5021300;28;20597;-78
2021/08/10 06:41:07;;;;;;;11.30;3.80;;;16.10;97.30;;;;;;5001959;28;20204;-78
2021/08/10 06:43:33;;;;;;;14.03;3.97;;;16.20;97.30;;;;;;5008997;28;20203;-79
2021/08/10 06:45:58;;;;;;;19.40;3.87;;;16.20;97.30;;;;;;5013655;28;20184;-77
2021/08/10 06:48:24;;;;;;;3.97;3.30;;;16.30;97.30;;;;;;5013783;28;20232;-78
2021/08/10 06:50:49;;;;;;;8.33;3.23;;;16.30;97.30;;;;;;4997861;28;20178;-77
2021/08/10 06:53:17;;;;;;;5.80;3.33;;;16.50;97.30;;;;;;5028293;28;20696;-77
2021/08/10 06:55:42;;;;;;;7.50;3.77;;;16.50;97.30;;;;;;5031394;28;20265;-78
2021/08/10 06:58:08;;;;;;;5.17;2.80;;;16.60;97.30;;;;;;5013180;28;20510;-76
2021/08/10 07:00:34;;;;;;;7.10;3.40;;;16.70;97.30;;;;;;5016876;28;20181;-76
2021/08/10 07:02:59;;;;;;;6.53;2.90;;;16.80;97.30;;;;;;5035226;28;20176;-76
2021/08/10 07:05:26;;;;;;;7.87;3.20;;;16.80;97.30;;;;;;5035155;28;20291;-76
2021/08/10 07:07:52;;;;;;;7.03;3.77;;;16.80;97.30;;;;;;5016639;28;20200;-76
2021/08/10 07:10:18;;;;;;;6.90;3.13;;;16.80;97.30;;;;;;5035054;28;20414;-76
2021/08/10 07:12:44;;;;;;;3.73;3.17;;;16.80;97.30;;;;;;5017217;28;20431;-80
2021/08/10 07:15:10;;;;;;;9.50;3.20;;;16.90;97.30;;;;;;5017574;28;20837;-77
2021/08/10 07:17:35;;;;;;;8.30;3.20;;;16.80;97.30;;;;;;5016596;28;20180;-79
2021/08/10 07:20:01;;;;;;;7.10;2.80;;;16.90;97.30;;;;;;5017030;28;20423;-79
2021/08/10 07:22:27;;;;;;;4.90;3.03;;;16.90;97.30;;;;;;5016888;28;20216;-77
2021/08/10 07:24:52;;;;;;;10.17;3.20;;;16.90;97.30;;;;;;5034451;28;20230;-77
2021/08/10 07:27:18;;;;;;;8.30;3.40;;;17.00;97.30;;;;;;5011621;28;20169;-78
2021/08/10 07:29:43;;;;;;;6.13;3.27;;;17.00;97.30;;;;;;5011357;28;20197;-77
2021/08/10 07:32:09;;;;;;;6.27;3.60;;;17.10;97.30;;;;;;5023335;28;20181;-78
2021/08/10 07:34:34;;;;;;;4.47;3.10;;;17.10;97.30;;;;;;5027325;28;20176;-78
2021/08/10 07:37:00;;;;;;;6.87;3.20;;;17.10;97.30;;;;;;5008999;28;20177;-78
2021/08/10 07:39:26;;;;;;;7.07;3.70;;;17.20;97.30;;;;;;5005414;28;20430;-78
2021/08/10 07:41:52;;;;;;;8.13;3.30;;;17.20;97.30;;;;;;5007978;28;20180;-78
2021/08/10 07:44:17;;;;;;;9.23;3.33;;;17.20;97.30;;;;;;5016808;28;20200;-80
2021/08/10 07:46:43;;;;;;;5.50;3.20;;;17.20;97.30;;;;;;5033855;28;20430;-77
2021/08/10 07:49:09;;;;;;;7.10;3.97;;;17.20;97.30;;;;;;5033976;28;20689;-77
2021/08/10 07:51:34;;;;;;;4.80;3.10;;;17.20;97.30;;;;;;5013353;28;20631;-77
2021/08/10 07:54:00;;;;;;;4.70;2.83;;;17.20;97.30;;;;;;5013137;28;20183;-78
2021/08/10 07:56:25;;;;;;;4.40;3.20;;;17.20;97.30;;;;;;5023285;28;20665;-77
2021/08/10 07:58:51;;;;;;;5.67;3.43;;;17.20;97.30;;;;;;5015116;28;20231;-77
2021/08/10 08:01:16;;;;;;;5.80;2.80;;;17.30;97.30;;;;;;5022549;28;20227;-77
2021/08/10 08:03:42;;;;;;;18.27;3.87;;;17.30;97.30;;;;;;5036471;28;20243;-79
2021/08/10 08:06:08;;;;;;;6.03;3.37;;;17.40;97.30;;;;;;5020213;28;20180;-77
2021/08/10 08:08:33;;;;;;;8.27;3.10;;;17.40;97.30;;;;;;5038277;28;20191;-80
2021/08/10 08:10:59;;;;;;;8.70;3.50;;;17.40;97.30;;;;;;5021857;28;20169;-77
2021/08/10 08:13:26;;;;;;;6.27;3.97;;;17.50;97.30;;;;;;5030532;28;20182;-77
2021/08/10 08:15:53;;;;;;;6.13;3.23;;;17.50;97.30;;;;;;5035605;28;20422;-77
2021/08/10 08:18:19;;;;;;;4.80;3.30;;;17.60;97.30;;;;;;5038785;28;20488;-78
2021/08/10 08:20:46;;;;;;;7.97;3.10;;;17.50;97.30;;;;;;5024655;28;20954;-77
2021/08/10 08:23:12;;;;;;;4.47;2.90;;;17.50;97.30;;;;;;5015490;28;20415;-78
2021/08/10 08:25:38;;;;;;;13.00;4.63;;;17.50;97.30;;;;;;5033589;28;20451;-78
2021/08/10 08:28:08;;;;;;;9.50;4.10;;;17.40;97.30;;;;;;5023508;28;20839;-78
2021/08/10 08:30:38;;;;;;;11.90;4.13;;;17.40;97.30;;;;;;5030777;28;20171;-82
2021/08/10 08:33:05;;;;;;;5.60;3.40;;;17.40;97.30;;;;;;5031605;28;20427;-82
2021/08/10 08:35:30;;;;;;;6.20;3.33;;;17.30;97.30;;;;;;5045806;28;20414;-81
2021/08/10 08:37:56;;;;;;;17.30;3.53;;;17.10;97.30;;;;;;5030792;28;20751;-82
2021/08/10 08:40:24;;;;;;;7.47;3.60;;;17.00;97.30;;;;;;5037685;28;20226;-83
2021/08/10 08:42:49;;;;;;;8.13;3.30;;;16.80;97.30;;;;;;5040610;28;20202;-83
2021/08/10 08:45:15;;;;;;;16.30;3.90;;;16.70;97.30;;;;;;5040100;28;20557;-82
2021/08/10 08:47:45;;;;;;;16.33;4.10;;;16.60;97.30;;;;;;5057745;28;20228;-82
2021/08/10 08:50:11;;;;;;;8.10;3.83;;;16.60;97.30;;;;;;5039969;28;20574;-82
2021/08/10 08:52:40;;;;;;;8.50;3.70;;;16.60;97.30;;;;;;5039996;28;20501;-82
2021/08/10 08:55:06;;;;;;;8.47;3.67;;;16.60;97.30;;;;;;5040956;28;20657;-82
2021/08/10 08:57:32;;;;;;;8.30;4.00;;;16.70;97.30;;;;;;5040317;28;20450;-82
2021/08/10 08:59:58;;;;;;;11.13;3.47;;;16.70;97.30;;;;;;5040873;28;20473;-82
2021/08/10 09:02:23;;;;;;;5.20;3.20;;;16.70;97.30;;;;;;5058170;28;20268;-82
2021/08/10 09:04:49;;;;;;;7.53;3.50;;;16.70;97.30;;;;;;5039756;28;20665;-83
2021/08/10 09:07:14;;;;;;;5.23;3.10;;;16.60;97.30;;;;;;5054988;28;20243;-83
2021/08/10 09:09:40;;;;;;;6.80;3.93;;;16.60;97.30;;;;;;5039530;28;20198;-83
2021/08/10 09:12:15;;;;;;;5.80;3.37;;;16.60;97.30;;;;;;5040931;28;20176;-81
2021/08/10 09:14:49;;;;;;;6.93;3.90;;;16.60;97.30;;;;;;5039627;28;20185;-82
2021/08/10 09:17:20;;;;;;;7.37;3.77;;;16.60;97.30;;;;;;5027547;28;20434;-81
2021/08/10 09:19:54;;;;;;;11.13;4.17;;;16.50;97.30;;;;;;5019194;28;20439;-83
2021/08/10 09:22:22;;;;;;;9.33;3.47;;;16.50;97.30;;;;;;5020332;28;20419;-83
2021/08/10 09:24:52;;;;;;;9.60;4.30;;;16.50;97.30;;;;;;5031555;28;20465;-83
2021/08/10 09:27:38;;;;;;;8.13;3.97;;;16.50;97.30;;;;;;5039981;28;20423;-83
2021/08/10 09:30:11;;;;;;;8.67;4.03;;;16.50;97.30;;;;;;5040055;28;20445;-82
2021/08/10 09:32:51;;;;;;;8.83;3.97;;;16.60;97.30;;;;;;5039542;28;20924;-82
2021/08/10 09:35:18;;;;;;;9.07;4.53;;;16.60;97.30;;;;;;5039446;28;20963;-82
2021/08/10 09:38:11;;;;;;;7.80;3.40;;;16.70;97.30;;;;;;5039570;28;20442;-83
2021/08/10 09:40:48;;;;;;;10.10;4.10;;;16.70;97.30;;;;;;5027616;28;20429;-84
2021/08/10 09:43:35;;;;;;;7.10;3.87;;;16.70;97.30;;;;;;5036352;28;20410;-84
2021/08/10 09:46:18;;;;;;;10.33;4.57;;;16.70;97.30;;;;;;5035529;28;20469;-84
2021/08/10 09:48:54;;;;;;;8.33;4.43;;;16.70;97.30;;;;;;5034976;28;20477;-84
2021/08/10 09:51:22;;;;;;;7.33;4.10;;;16.70;97.30;;;;;;5035494;28;20429;-85
2021/08/10 09:54:13;;;;;;;9.13;3.90;;;16.70;97.30;;;;;;5034441;28;20426;-84
2021/08/10 09:56:55;;;;;;;10.03;4.07;;;16.70;97.30;;;;;;5035342;28;20785;-85
2021/08/10 09:59:22;;;;;;;9.47;4.40;;;16.90;97.30;;;;;;5053108;28;20489;-85
2021/08/10 10:01:55;;;;;;;9.80;4.10;;;17.10;97.30;;;;;;5035193;28;20786;-84
2021/08/10 10:04:24;;;;;;;13.70;3.90;;;17.30;97.30;;;;;;5052918;28;20453;-85
2021/08/10 10:06:51;;;;;;;10.57;4.30;;;17.40;97.30;;;;;;5034843;28;20754;-84
2021/08/10 10:09:18;;;;;;;9.50;4.13;;;17.40;97.30;;;;;;5035168;28;20430;-85
2021/08/10 10:11:47;;;;;;;7.17;4.17;;;17.40;97.30;;;;;;5053690;28;20407;-85
2021/08/10 10:14:13;;;;;;;9.83;4.37;;;17.50;97.30;;;;;;5035063;28;20787;-85
2021/08/10 10:16:42;;;;;;;6.70;3.57;;;17.50;97.30;;;;;;5035179;28;20445;-83
2021/08/10 10:19:10;;;;;;;7.17;4.03;;;17.40;97.30;;;;;;5035097;28;20473;-84
2021/08/10 10:21:38;;;;;;;5.23;3.43;;;17.40;97.30;;;;;;5035533;28;20491;-84
2021/08/10 10:24:04;;;;;;;7.97;4.10;;;17.40;97.30;;;;;;5053856;28;20473;-83
2021/08/10 10:26:31;;;;;;;12.10;4.13;;;17.50;97.30;;;;;;5036712;28;20415;-83
2021/08/10 10:28:58;;;;;;;7.20;3.53;;;17.80;97.30;;;;;;5037016;28;20445;-84
2021/08/10 10:31:24;;;;;;;8.17;3.20;;;18.30;97.30;;;;;;5038163;28;20421;-81
2021/08/10 10:33:51;;;;;;;6.80;3.63;;;18.40;97.30;;;;;;5039158;28;20920;-82
2021/08/10 10:36:17;;;;;;;5.53;3.30;;;18.70;97.30;;;;;;5042025;28;20589;-81
2021/08/10 10:38:43;;;;;;;8.17;3.93;;;18.70;97.30;;;;;;5042470;28;20975;-81
2021/08/10 10:41:10;;;;;;;5.50;2.97;;;18.70;97.30;;;;;;5043154;28;20406;-81
2021/08/10 10:43:36;;;;;;;7.17;3.27;;;18.60;97.30;;;;;;5042080;28;20422;-81
2021/08/10 10:46:33;;;;;;;5.80;3.23;;;18.50;97.30;;;;;;5042109;28;20470;-80
2021/08/10 10:49:03;;;;;;;7.57;3.03;;;18.40;97.30;;;;;;5042340;28;20426;-81
2021/08/10 10:51:38;;;;;;;5.40;2.73;;;18.40;97.30;;;;;;5060972;28;20482;-79
2021/08/10 10:54:26;;;;;;;5.10;3.10;;;18.40;97.30;;;;;;5041866;28;20425;-80
2021/08/10 10:56:55;;;;;;;9.67;3.73;;;18.60;97.30;;;;;;5041856;28;20473;-81
2021/08/10 10:59:27;;;;;;;7.30;3.50;;;18.90;97.30;;;;;;5041029;28;20559;-79
2021/08/10 11:02:09;;;;;;;8.33;3.50;;;19.00;97.30;;;;;;5040404;28;20471;-80
2021/08/10 11:04:35;;;;;;;6.30;3.37;;;19.10;97.30;;;;;;5040511;28;20458;-79
2021/08/10 11:07:39;;;;;;;6.00;3.20;;;19.20;97.30;;;;;;5040795;28;20472;-80
2021/08/10 11:10:28;;;;;;;5.50;3.00;;;19.20;97.30;;;;;;5071324;28;20397;-79
2021/08/10 11:12:54;;;;;;;8.67;3.20;;;19.30;97.30;;;;;;5039563;28;20782;-79
2021/08/10 11:15:21;;;;;;;8.47;3.50;;;19.40;97.30;;;;;;5039483;28;20501;-79
2021/08/10 11:18:08;;;;;;;7.83;3.23;;;19.50;97.30;;;;;;5039814;28;20673;-79
2021/08/10 11:20:50;;;;;;;10.37;4.30;;;19.70;97.30;;;;;;5039906;28;20486;-80
2021/08/10 11:25:45;;;;;;;5.57;3.30;;;20.00;97.30;;;;;;5056298;28;20458;-79
2021/08/10 11:28:43;;;;;;;7.27;3.43;;;20.00;97.30;;;;;;5032450;28;20476;-78
2021/08/10 11:31:10;;;;;;;7.03;3.37;;;19.90;97.30;;;;;;5025823;28;20425;-79
2021/08/10 11:33:37;;;;;;;8.47;2.77;;;20.00;97.30;;;;;;5037840;28;20423;-79
2021/08/10 11:36:09;;;;;;;5.40;3.20;;;20.20;97.30;;;;;;5037609;28;20430;-79
2021/08/10 11:38:36;;;;;;;6.73;3.27;;;20.50;97.30;;;;;;5055335;28;20951;-79
2021/08/10 11:41:04;;;;;;;6.77;3.03;;;20.70;97.30;;;;;;5037497;28;20419;-79
2021/08/10 11:43:47;;;;;;;7.53;2.90;;;20.80;97.30;;;;;;5037390;28;20521;-79
2021/08/10 11:46:24;;;;;;;9.50;4.70;;;21.00;97.30;;;;;;5036146;28;20418;-78
2021/08/10 11:48:52;;;;;;;4.93;3.77;;;21.10;97.30;;;;;;5055028;28;20440;-78
2021/08/10 11:51:26;;;;;;;4.57;3.00;;;21.20;97.30;;;;;;5037226;28;20446;-78
2021/08/10 11:53:57;;;;;;;7.17;3.07;;;21.40;97.30;;;;;;5054627;28;20505;-77
2021/08/10 11:56:29;;;;;;;6.93;3.30;;;21.50;97.30;;;;;;5054738;28;20804;-78
2021/08/10 11:58:56;;;;;;;8.97;3.57;;;21.60;97.30;;;;;;5035823;28;20821;-78
2021/08/10 12:01:23;;;;;;;4.30;2.60;;;21.80;97.30;;;;;;5036808;28;20422;-78
2021/08/10 12:03:49;;;;;;;5.43;2.77;;;21.90;97.30;;;;;;5036459;28;20962;-78
2021/08/10 12:06:14;;;;;;;7.30;2.47;;;22.00;97.30;;;;;;5054221;28;20418;-78
2021/08/10 12:08:41;;;;;;;7.03;3.20;;;22.00;97.30;;;;;;5036547;28;20230;-77
2021/08/10 12:11:07;;;;;;;5.60;3.30;;;22.20;97.30;;;;;;5035794;28;20176;-78
2021/08/10 12:13:33;;;;;;;4.93;3.17;;;22.40;97.30;;;;;;5053970;28;20414;-78
2021/08/10 12:15:58;;;;;;;5.07;3.40;;;22.50;97.30;;;;;;5034059;28;20434;-78
2021/08/10 12:18:26;;;;;;;5.50;2.60;;;22.60;97.30;;;;;;5016000;28;20642;-79
2021/08/10 12:21:05;;;;;;;5.53;2.63;;;22.70;97.30;;;;;;5033469;28;20235;-77
2021/08/10 12:23:50;;;;;;;4.63;2.80;;;22.80;97.30;;;;;;5033539;28;20430;-78
2021/08/10 12:26:22;;;;;;;6.87;3.13;;;22.90;97.30;;;;;;5033195;28;20434;-77
2021/08/10 12:28:52;;;;;;;5.00;2.80;;;23.10;97.30;;;;;;5015372;28;20466;-78
2021/08/10 12:31:18;;;;;;;3.13;2.70;;;23.30;95.70;;;;;;5015466;28;20430;-78
2021/08/10 12:33:51;;;;;;;4.10;2.80;;;23.40;97.30;;;;;;5033240;28;20407;-78
2021/08/10 12:36:18;;;;;;;6.60;2.50;;;23.40;93.80;;;;;;5015776;28;20212;-77
2021/08/10 12:38:45;;;;;;;5.80;2.80;;;23.10;92.70;;;;;;5044797;28;20442;-80
2021/08/10 12:41:11;;;;;;;7.70;2.40;;;22.90;93.30;;;;;;5034872;28;20434;-77
2021/08/10 12:43:38;;;;;;;3.33;2.33;;;23.00;94.90;;;;;;5035493;28;20639;-77
2021/08/10 12:46:35;;;;;;;4.07;2.00;;;23.10;93.20;;;;;;5052958;28;20488;-77
2021/08/10 12:49:06;;;;;;;5.73;2.23;;;23.30;90.50;;;;;;5015490;28;20456;-77
2021/08/10 12:51:50;;;;;;;6.17;2.50;;;23.50;91.20;;;;;;5034522;28;20414;-77
2021/08/10 12:54:16;;;;;;;4.80;2.30;;;23.80;90.30;;;;;;5052932;28;20477;-78
2021/08/10 12:56:42;;;;;;;5.70;3.23;;;23.80;89.80;;;;;;5034450;28;20502;-78